Norene, Tennessee
Current Conditions -  °F | °C
As of 5:53 AM on Thursday 29 Jan 2015 (Local Time) from KBNA Reporting Station
Overcast Overcast  
Wind Chill: 42°   Ceiling: 8500
Heat Index: 48°   Visibility: 10mi
Dew Point: 32°   Wind: 16mph
Humidity: 54%   Direction: 190°S
Pressure: 30.05"   Gusts: 23mph
Location:  36.06°N, 86.24°W
Report Text: KBNA 291153Z 19014G20KT 10SM OVC085 09/00 A3005 RMK AO2 PK WND 19026/1118 RAB00E18B37E47 SLP175 P0000 60000 T00890000 10100 20067 56014 $
Loading
Personal Weather Stations






























Interactive Weather Map New forecast layout! Learn more

10-Day Weather Forecast

Advertisements
Track Severe Weather on mobile